Time;durP1;ratioP1;P1;durP2;ratioP2;P2;SDS_P1;SDS_P2;PMS_P1;PMS_P2;Temp;Humidity;BMP_temperature;BMP_pressure;BME280_temperature;BME280_humidity;BME280_pressure;Samples;Min_cycle;Max_cycle;Signal;HPM_P1;HPM_P2
2024/03/11 00:00:17;;;;;;;28.15;19.52;;;;;;;;;;5067335;28;20031;-87
2024/03/11 00:02:43;;;;;;;28.63;18.83;;;;;;;;;;5060588;28;20123;-87
2024/03/11 00:05:11;;;;;;;26.67;19.13;;;;;;;;;;5061641;28;20098;-87
2024/03/11 00:07:37;;;;;;;28.10;19.17;;;;;;;;;;5069378;28;20479;-88
2024/03/11 00:10:11;;;;;;;28.35;19.30;;;;;;;;;;5072038;28;20060;-87
2024/03/11 00:12:51;;;;;;;29.15;19.60;;;;;;;;;;5057392;28;20051;-87
2024/03/11 00:15:23;;;;;;;30.67;20.25;;;;;;;;;;5067088;28;20016;-87
2024/03/11 00:17:49;;;;;;;29.13;19.13;;;;;;;;;;5067647;28;20111;-87
2024/03/11 00:20:15;;;;;;;28.35;19.20;;;;;;;;;;5069812;28;20032;-87
2024/03/11 00:22:41;;;;;;;28.50;19.10;;;;;;;;;;5070297;28;20024;-87
2024/03/11 00:25:08;;;;;;;27.95;19.27;;;;;;;;;;5066574;28;20016;-87
2024/03/11 00:27:36;;;;;;;28.52;19.77;;;;;;;;;;5057019;28;20063;-87
2024/03/11 00:30:08;;;;;;;28.98;19.77;;;;;;;;;;5059345;28;20123;-87
2024/03/11 00:32:35;;;;;;;29.27;19.60;;;;;;;;;;5052388;28;20059;-87
2024/03/11 00:35:02;;;;;;;26.70;18.52;;;;;;;;;;5056943;28;20077;-86
2024/03/11 00:37:27;;;;;;;28.08;18.60;;;;;;;;;;5054195;28;20107;-88
2024/03/11 00:39:53;;;;;;;26.73;18.73;;;;;;;;;;5057593;28;20104;-88
2024/03/11 00:42:18;;;;;;;29.85;18.98;;;;;;;;;;5051846;28;20036;-87
2024/03/11 00:44:48;;;;;;;26.73;17.92;;;;;;;;;;5055561;28;21767;-87
2024/03/11 00:47:14;;;;;;;28.23;18.67;;;;;;;;;;5054880;28;20547;-90
2024/03/11 00:49:39;;;;;;;26.80;17.83;;;;;;;;;;5053030;28;20036;-87
2024/03/11 00:52:05;;;;;;;26.27;17.40;;;;;;;;;;5054854;28;20031;-87
2024/03/11 00:54:30;;;;;;;29.17;18.45;;;;;;;;;;5060929;28;20392;-89
2024/03/11 00:56:56;;;;;;;26.65;18.50;;;;;;;;;;5055448;28;20020;-87
2024/03/11 00:59:21;;;;;;;26.90;18.15;;;;;;;;;;5052362;28;20491;-87
2024/03/11 01:01:46;;;;;;;28.17;19.30;;;;;;;;;;5056094;28;20033;-87
2024/03/11 01:04:12;;;;;;;26.25;18.08;;;;;;;;;;5055868;28;20029;-86
2024/03/11 01:06:37;;;;;;;27.38;18.55;;;;;;;;;;5054913;28;20025;-88
2024/03/11 01:09:04;;;;;;;25.67;17.85;;;;;;;;;;5058239;28;20482;-87
2024/03/11 01:11:29;;;;;;;25.85;17.90;;;;;;;;;;5052029;28;20021;-87
2024/03/11 01:13:55;;;;;;;25.75;17.90;;;;;;;;;;5058713;28;20028;-86
2024/03/11 01:16:21;;;;;;;26.65;18.02;;;;;;;;;;5063546;28;20024;-87
2024/03/11 01:18:46;;;;;;;25.08;17.65;;;;;;;;;;5061971;28;20033;-87
2024/03/11 01:21:17;;;;;;;25.30;18.02;;;;;;;;;;5054710;28;20154;-87
2024/03/11 01:23:44;;;;;;;27.15;18.60;;;;;;;;;;5056802;28;20025;-88
2024/03/11 01:26:11;;;;;;;25.98;17.33;;;;;;;;;;5051860;28;20054;-77
2024/03/11 01:28:36;;;;;;;25.40;17.77;;;;;;;;;;5054208;28;20065;-77
2024/03/11 01:31:04;;;;;;;25.38;17.85;;;;;;;;;;5052245;28;20052;-77
2024/03/11 01:33:30;;;;;;;27.73;18.35;;;;;;;;;;5054220;28;20032;-77
2024/03/11 01:35:56;;;;;;;26.52;16.67;;;;;;;;;;5051108;28;20111;-77
2024/03/11 01:38:21;;;;;;;26.05;16.75;;;;;;;;;;5051912;28;20060;-77
2024/03/11 01:40:47;;;;;;;27.10;18.50;;;;;;;;;;5053046;28;20112;-77
2024/03/11 01:43:14;;;;;;;28.25;18.40;;;;;;;;;;5069610;28;20440;-77
2024/03/11 01:45:40;;;;;;;29.05;19.17;;;;;;;;;;5051961;28;21189;-78
2024/03/11 01:48:07;;;;;;;26.92;17.55;;;;;;;;;;5053704;28;20059;-78
2024/03/11 01:50:32;;;;;;;26.02;18.15;;;;;;;;;;5050525;28;21654;-78
2024/03/11 01:53:03;;;;;;;28.23;19.25;;;;;;;;;;5052784;28;20032;-78
2024/03/11 01:55:30;;;;;;;28.70;18.77;;;;;;;;;;5053571;28;20390;-77
2024/03/11 01:57:58;;;;;;;26.48;17.90;;;;;;;;;;5054093;28;20060;-77
2024/03/11 02:00:23;;;;;;;29.17;18.50;;;;;;;;;;5063059;28;20059;-88
2024/03/11 02:05:26;;;;;;;27.65;17.85;;;;;;;;;;5043301;28;20045;-86
2024/03/11 02:08:02;;;;;;;26.27;17.85;;;;;;;;;;5033533;28;20119;-86
2024/03/11 02:10:28;;;;;;;26.80;18.42;;;;;;;;;;5047216;28;20028;-86
2024/03/11 02:12:55;;;;;;;26.80;18.30;;;;;;;;;;5047987;28;20029;-85
2024/03/11 02:15:21;;;;;;;28.45;18.45;;;;;;;;;;5069571;28;20051;-86
2024/03/11 02:17:47;;;;;;;28.38;19.13;;;;;;;;;;5047698;28;20056;-83
2024/03/11 02:20:21;;;;;;;29.40;19.20;;;;;;;;;;5046452;28;20124;-83
2024/03/11 02:22:52;;;;;;;28.13;19.55;;;;;;;;;;5045067;28;20036;-85
2024/03/11 02:25:26;;;;;;;27.88;18.35;;;;;;;;;;5047370;28;20037;-85
2024/03/11 02:27:53;;;;;;;28.58;19.02;;;;;;;;;;5046449;28;20609;-84
2024/03/11 02:30:19;;;;;;;27.55;18.65;;;;;;;;;;5052223;28;20020;-84
2024/03/11 02:32:45;;;;;;;28.48;19.70;;;;;;;;;;5058991;28;21978;-83
2024/03/11 02:35:11;;;;;;;29.65;19.10;;;;;;;;;;5051244;28;20057;-83
2024/03/11 02:37:36;;;;;;;28.58;19.48;;;;;;;;;;5046402;28;20455;-83
2024/03/11 02:40:07;;;;;;;30.75;20.50;;;;;;;;;;5043140;28;20124;-82
2024/03/11 02:42:34;;;;;;;29.83;20.00;;;;;;;;;;5044872;28;20124;-82
2024/03/11 02:45:00;;;;;;;31.48;19.35;;;;;;;;;;5046405;28;20082;-82
2024/03/11 02:47:26;;;;;;;29.02;19.58;;;;;;;;;;5046380;28;20126;-82
2024/03/11 02:49:52;;;;;;;31.17;20.25;;;;;;;;;;5044399;28;20024;-83
2024/03/11 02:52:17;;;;;;;30.88;20.27;;;;;;;;;;5060703;28;20435;-84
2024/03/11 02:54:45;;;;;;;30.88;19.85;;;;;;;;;;5046533;28;20033;-84
2024/03/11 02:57:13;;;;;;;31.30;20.55;;;;;;;;;;5046944;28;20554;-85
2024/03/11 02:59:40;;;;;;;32.72;20.30;;;;;;;;;;5048948;28;20033;-84
2024/03/11 03:02:07;;;;;;;31.95;21.05;;;;;;;;;;5048051;28;20301;-83
2024/03/11 03:04:34;;;;;;;28.73;19.85;;;;;;;;;;5058923;28;20396;-83
2024/03/11 03:07:00;;;;;;;31.10;20.00;;;;;;;;;;5051445;28;20398;-84
2024/03/11 03:09:25;;;;;;;28.83;19.70;;;;;;;;;;5065503;28;20032;-83
2024/03/11 03:11:51;;;;;;;29.50;19.73;;;;;;;;;;5065882;28;20027;-83
2024/03/11 03:14:17;;;;;;;30.65;20.95;;;;;;;;;;5066592;28;20064;-84
2024/03/11 03:16:42;;;;;;;28.33;19.92;;;;;;;;;;5066218;28;20545;-83
2024/03/11 03:19:08;;;;;;;30.83;20.65;;;;;;;;;;5060857;28;21011;-82
2024/03/11 03:21:34;;;;;;;31.35;20.45;;;;;;;;;;5066040;28;20035;-83
2024/03/11 03:23:59;;;;;;;29.52;20.73;;;;;;;;;;5070883;28;20027;-83
2024/03/11 03:26:25;;;;;;;30.17;20.00;;;;;;;;;;5072350;28;20044;-84
2024/03/11 03:28:51;;;;;;;31.30;21.35;;;;;;;;;;5074549;28;20426;-83
2024/03/11 03:31:17;;;;;;;29.13;19.73;;;;;;;;;;5068182;28;20530;-84
2024/03/11 03:33:43;;;;;;;30.75;20.05;;;;;;;;;;5075995;28;20128;-88
2024/03/11 03:36:08;;;;;;;31.33;20.65;;;;;;;;;;5074538;28;20111;-88
2024/03/11 03:38:37;;;;;;;28.98;20.33;;;;;;;;;;5067501;28;20025;-88
2024/03/11 03:41:04;;;;;;;31.73;19.80;;;;;;;;;;5064946;28;20373;-87
2024/03/11 03:43:30;;;;;;;28.73;19.27;;;;;;;;;;5072437;28;20024;-88
2024/03/11 03:45:56;;;;;;;30.27;20.90;;;;;;;;;;5073469;28;20077;-89
2024/03/11 03:48:21;;;;;;;30.13;19.90;;;;;;;;;;5066237;28;20028;-88
2024/03/11 03:50:47;;;;;;;28.00;19.85;;;;;;;;;;5068962;28;20425;-88
2024/03/11 03:53:12;;;;;;;29.85;19.08;;;;;;;;;;5064851;28;20028;-87
2024/03/11 03:55:38;;;;;;;30.55;20.63;;;;;;;;;;5082175;28;20891;-88
2024/03/11 03:58:04;;;;;;;30.50;19.95;;;;;;;;;;5067713;28;20382;-83
2024/03/11 04:00:30;;;;;;;31.65;19.85;;;;;;;;;;5064622;28;20028;-84
2024/03/11 04:02:56;;;;;;;32.00;20.08;;;;;;;;;;5068879;28;20111;-84
2024/03/11 04:05:22;;;;;;;31.58;20.58;;;;;;;;;;5066085;28;20032;-85
2024/03/11 04:07:48;;;;;;;30.83;20.00;;;;;;;;;;5063939;28;20029;-82
2024/03/11 04:10:17;;;;;;;29.67;20.02;;;;;;;;;;5065804;28;20158;-82
2024/03/11 04:12:47;;;;;;;31.95;21.00;;;;;;;;;;5068849;28;20383;-84
2024/03/11 04:15:13;;;;;;;29.83;20.35;;;;;;;;;;5063735;28;20021;-84
2024/03/11 04:17:40;;;;;;;31.48;20.60;;;;;;;;;;5069096;28;20029;-84
2024/03/11 04:20:11;;;;;;;31.45;20.70;;;;;;;;;;5065339;28;20024;-84
2024/03/11 04:22:49;;;;;;;29.80;20.08;;;;;;;;;;5064584;28;20064;-84
2024/03/11 04:25:23;;;;;;;32.10;21.00;;;;;;;;;;5062195;28;20036;-84
2024/03/11 04:27:50;;;;;;;33.10;21.27;;;;;;;;;;5064172;28;20029;-84
2024/03/11 04:30:21;;;;;;;31.00;19.90;;;;;;;;;;5062150;28;20112;-84
2024/03/11 04:32:53;;;;;;;32.30;21.77;;;;;;;;;;5080528;28;20030;-85
2024/03/11 04:35:24;;;;;;;32.45;20.63;;;;;;;;;;5059127;28;20383;-84
2024/03/11 04:38:03;;;;;;;30.38;20.70;;;;;;;;;;5064406;28;20025;-84
2024/03/11 04:40:31;;;;;;;31.88;20.80;;;;;;;;;;5062639;28;20028;-84
2024/03/11 04:42:57;;;;;;;33.65;21.17;;;;;;;;;;5062826;28;21189;-85
2024/03/11 04:45:27;;;;;;;31.58;20.35;;;;;;;;;;5064319;28;20033;-84
2024/03/11 04:47:59;;;;;;;30.23;19.85;;;;;;;;;;5064593;28;20923;-84
2024/03/11 04:50:32;;;;;;;31.03;20.10;;;;;;;;;;5062512;28;20120;-84
2024/03/11 04:53:03;;;;;;;31.27;21.27;;;;;;;;;;5065399;28;20775;-85
2024/03/11 04:55:32;;;;;;;32.50;20.70;;;;;;;;;;5062515;28;20463;-82
2024/03/11 04:57:58;;;;;;;33.17;21.45;;;;;;;;;;5064992;28;20568;-83
2024/03/11 05:00:28;;;;;;;32.30;19.65;;;;;;;;;;5058681;28;20036;-83
2024/03/11 05:03:05;;;;;;;30.25;19.48;;;;;;;;;;5061259;28;20472;-84
2024/03/11 05:05:31;;;;;;;28.45;18.75;;;;;;;;;;5064163;28;20052;-84
2024/03/11 05:07:57;;;;;;;29.58;18.65;;;;;;;;;;5064382;28;20050;-82
2024/03/11 05:10:24;;;;;;;29.20;19.33;;;;;;;;;;5062807;28;20573;-82
2024/03/11 05:12:49;;;;;;;30.67;19.08;;;;;;;;;;5065201;28;20082;-83
2024/03/11 05:15:17;;;;;;;28.75;19.38;;;;;;;;;;5065411;28;20028;-83
2024/03/11 05:17:42;;;;;;;29.90;19.10;;;;;;;;;;5064356;28;20052;-82
2024/03/11 05:20:18;;;;;;;30.70;19.80;;;;;;;;;;5063741;28;20051;-82
2024/03/11 05:22:48;;;;;;;31.15;19.25;;;;;;;;;;5065722;28;20429;-82
2024/03/11 05:25:19;;;;;;;31.63;21.50;;;;;;;;;;5068856;28;20046;-83
2024/03/11 05:27:46;;;;;;;32.15;20.90;;;;;;;;;;5062533;28;20032;-83
2024/03/11 05:30:12;;;;;;;31.63;20.90;;;;;;;;;;5064604;28;20032;-84
2024/03/11 05:32:38;;;;;;;34.88;22.45;;;;;;;;;;5064603;28;20078;-84
2024/03/11 05:35:04;;;;;;;34.28;22.35;;;;;;;;;;5061073;28;20039;-84
2024/03/11 05:37:32;;;;;;;35.30;22.80;;;;;;;;;;5064200;28;20035;-84
2024/03/11 05:39:59;;;;;;;36.58;23.30;;;;;;;;;;5064973;28;20036;-83
2024/03/11 05:42:25;;;;;;;36.50;22.80;;;;;;;;;;5061371;28;20068;-88
2024/03/11 05:44:50;;;;;;;33.05;22.25;;;;;;;;;;5060620;28;20063;-87
2024/03/11 05:47:16;;;;;;;35.28;22.17;;;;;;;;;;5066376;28;20032;-87
2024/03/11 05:49:42;;;;;;;34.20;22.23;;;;;;;;;;5082711;28;20431;-88
2024/03/11 05:52:12;;;;;;;35.97;23.10;;;;;;;;;;5067049;28;20025;-86
2024/03/11 05:54:38;;;;;;;37.58;22.73;;;;;;;;;;5063971;28;20036;-86
2024/03/11 05:57:08;;;;;;;33.33;21.65;;;;;;;;;;5055089;28;20031;-87
2024/03/11 05:59:34;;;;;;;33.83;21.77;;;;;;;;;;5080228;28;20093;-86
2024/03/11 06:01:59;;;;;;;37.33;23.75;;;;;;;;;;5066663;28;20028;-87
2024/03/11 06:04:27;;;;;;;37.33;23.15;;;;;;;;;;5085121;28;20021;-87
2024/03/11 06:06:54;;;;;;;36.17;23.60;;;;;;;;;;5068181;28;20059;-87
2024/03/11 06:09:19;;;;;;;38.00;23.17;;;;;;;;;;5065890;28;20036;-88
2024/03/11 06:11:46;;;;;;;36.40;23.30;;;;;;;;;;5066448;28;20028;-87
2024/03/11 06:14:12;;;;;;;36.90;23.05;;;;;;;;;;5068390;28;20062;-87
2024/03/11 06:16:39;;;;;;;39.70;24.58;;;;;;;;;;5071404;28;20028;-87
2024/03/11 06:19:06;;;;;;;37.53;23.48;;;;;;;;;;5068389;28;20047;-88
2024/03/11 06:21:31;;;;;;;34.65;22.85;;;;;;;;;;5068277;28;20074;-87
2024/03/11 06:23:59;;;;;;;36.75;24.08;;;;;;;;;;5065058;28;20434;-87
2024/03/11 06:26:25;;;;;;;38.78;24.60;;;;;;;;;;5066505;28;20487;-87
2024/03/11 06:28:52;;;;;;;39.22;24.35;;;;;;;;;;5072738;28;20095;-87
2024/03/11 06:31:17;;;;;;;32.05;22.13;;;;;;;;;;5077790;28;20029;-87
2024/03/11 06:33:43;;;;;;;35.13;22.88;;;;;;;;;;5071731;28;20027;-87
2024/03/11 06:36:09;;;;;;;38.75;24.08;;;;;;;;;;5076137;28;20016;-86
2024/03/11 06:38:34;;;;;;;35.78;22.52;;;;;;;;;;5069498;28;20069;-87
2024/03/11 06:40:59;;;;;;;39.63;24.70;;;;;;;;;;5073222;28;20047;-86
2024/03/11 06:43:25;;;;;;;36.63;23.52;;;;;;;;;;5068413;28;20041;-86
2024/03/11 06:45:50;;;;;;;38.20;24.60;;;;;;;;;;5069743;28;20462;-86
2024/03/11 06:48:16;;;;;;;36.05;24.23;;;;;;;;;;5071001;28;20032;-86
2024/03/11 06:50:43;;;;;;;38.20;23.98;;;;;;;;;;5078344;28;20024;-83
2024/03/11 06:53:09;;;;;;;38.08;23.90;;;;;;;;;;5069338;28;20028;-83
2024/03/11 06:55:38;;;;;;;39.05;24.10;;;;;;;;;;5073078;28;20353;-83
2024/03/11 06:58:08;;;;;;;36.53;24.35;;;;;;;;;;5068742;28;20107;-83
2024/03/11 07:00:34;;;;;;;37.85;23.35;;;;;;;;;;5071478;28;20028;-82
2024/03/11 07:03:02;;;;;;;38.08;25.20;;;;;;;;;;5076611;28;20394;-83
2024/03/11 07:05:28;;;;;;;38.15;24.55;;;;;;;;;;5080910;28;20106;-83
2024/03/11 07:07:55;;;;;;;39.75;25.15;;;;;;;;;;5070844;28;20071;-83
2024/03/11 07:10:22;;;;;;;37.67;24.35;;;;;;;;;;5073060;28;20383;-85
2024/03/11 07:12:47;;;;;;;40.53;25.33;;;;;;;;;;5085473;28;20032;-86
2024/03/11 07:15:13;;;;;;;39.65;24.90;;;;;;;;;;5077949;28;20020;-85
2024/03/11 07:17:40;;;;;;;38.95;25.73;;;;;;;;;;5070202;28;20039;-85
2024/03/11 07:20:11;;;;;;;36.83;23.90;;;;;;;;;;5082194;28;20055;-85
2024/03/11 07:22:38;;;;;;;39.63;24.90;;;;;;;;;;5072933;28;20442;-84
2024/03/11 07:25:09;;;;;;;39.13;24.55;;;;;;;;;;5083982;28;20025;-85
2024/03/11 07:27:39;;;;;;;37.70;23.63;;;;;;;;;;5078317;28;20031;-85
2024/03/11 07:30:10;;;;;;;38.65;24.25;;;;;;;;;;5063215;28;20432;-85
2024/03/11 07:32:38;;;;;;;38.28;24.92;;;;;;;;;;5070131;28;20082;-85
2024/03/11 07:35:09;;;;;;;39.53;24.55;;;;;;;;;;5067918;28;20494;-85
2024/03/11 07:37:40;;;;;;;37.53;24.00;;;;;;;;;;5076338;28;20028;-85
2024/03/11 07:40:11;;;;;;;35.00;24.13;;;;;;;;;;5073602;28;20103;-86
2024/03/11 07:42:37;;;;;;;38.55;24.77;;;;;;;;;;5080059;28;20223;-85
2024/03/11 07:45:10;;;;;;;36.92;23.58;;;;;;;;;;5079714;28;20555;-86
2024/03/11 07:47:43;;;;;;;41.35;25.05;;;;;;;;;;5076669;28;20090;-85
2024/03/11 07:50:11;;;;;;;38.55;24.25;;;;;;;;;;5070162;28;20085;-85
2024/03/11 07:52:37;;;;;;;37.78;24.20;;;;;;;;;;5070937;28;20434;-85
2024/03/11 07:55:03;;;;;;;40.75;25.70;;;;;;;;;;5083266;28;20021;-85
2024/03/11 07:57:29;;;;;;;37.47;24.00;;;;;;;;;;5074839;28;20554;-85
2024/03/11 07:59:57;;;;;;;37.83;25.10;;;;;;;;;;5067054;28;20107;-85
2024/03/11 08:02:23;;;;;;;39.33;24.05;;;;;;;;;;5072360;28;20043;-84
2024/03/11 08:04:50;;;;;;;39.05;24.63;;;;;;;;;;5069242;28;20021;-84
2024/03/11 08:07:15;;;;;;;37.33;23.95;;;;;;;;;;5069944;28;20031;-85
2024/03/11 08:09:42;;;;;;;41.15;25.65;;;;;;;;;;5076511;28;20032;-85
2024/03/11 08:12:08;;;;;;;39.10;25.45;;;;;;;;;;5078182;28;20373;-85
2024/03/11 08:14:34;;;;;;;38.33;24.98;;;;;;;;;;5083053;28;20083;-85
2024/03/11 08:17:00;;;;;;;40.15;25.05;;;;;;;;;;5074428;28;20024;-85
2024/03/11 08:19:29;;;;;;;39.90;25.73;;;;;;;;;;5079833;28;20093;-85
2024/03/11 08:21:55;;;;;;;41.58;25.33;;;;;;;;;;5081845;28;20086;-82
2024/03/11 08:24:21;;;;;;;39.10;24.98;;;;;;;;;;5075600;28;20028;-82
2024/03/11 08:26:46;;;;;;;39.42;25.35;;;;;;;;;;5081158;28;20024;-82
2024/03/11 08:29:12;;;;;;;38.22;25.08;;;;;;;;;;5078303;28;20078;-83
2024/03/11 08:31:37;;;;;;;42.97;26.00;;;;;;;;;;5078891;28;20085;-83
2024/03/11 08:34:03;;;;;;;41.40;26.58;;;;;;;;;;5085497;28;20024;-82
2024/03/11 08:36:28;;;;;;;41.65;26.25;;;;;;;;;;5095686;28;20051;-83
2024/03/11 08:38:53;;;;;;;38.78;24.92;;;;;;;;;;5080876;28;20028;-82
2024/03/11 08:41:20;;;;;;;37.45;25.25;;;;;;;;;;5087853;28;20028;-82
2024/03/11 08:43:45;;;;;;;40.03;24.52;;;;;;;;;;5085424;28;20020;-82
2024/03/11 08:46:16;;;;;;;38.05;24.38;;;;;;;;;;5082653;28;20399;-82
2024/03/11 08:48:45;;;;;;;38.65;25.40;;;;;;;;;;5071897;28;20024;-85
2024/03/11 08:51:12;;;;;;;37.78;25.42;;;;;;;;;;5080758;28;20471;-84
2024/03/11 08:53:39;;;;;;;37.63;24.33;;;;;;;;;;5081508;28;20402;-85
2024/03/11 08:56:05;;;;;;;36.47;23.65;;;;;;;;;;5071535;28;20028;-85
2024/03/11 08:58:34;;;;;;;38.33;24.73;;;;;;;;;;5070954;28;20032;-83
2024/03/11 09:01:01;;;;;;;37.60;24.20;;;;;;;;;;5074492;28;20033;-83
2024/03/11 09:03:28;;;;;;;37.03;24.30;;;;;;;;;;5072919;28;20090;-83
2024/03/11 09:05:53;;;;;;;35.03;23.17;;;;;;;;;;5094550;28;20422;-83
2024/03/11 09:08:20;;;;;;;35.28;22.52;;;;;;;;;;5073960;28;20081;-83
2024/03/11 09:10:45;;;;;;;34.08;22.67;;;;;;;;;;5071477;28;20032;-83
2024/03/11 09:13:17;;;;;;;33.13;21.85;;;;;;;;;;5070224;28;20021;-83
2024/03/11 09:15:46;;;;;;;31.75;21.25;;;;;;;;;;5065231;28;20016;-83
2024/03/11 09:18:15;;;;;;;32.75;21.17;;;;;;;;;;5077559;28;20020;-83
2024/03/11 09:20:45;;;;;;;28.92;20.45;;;;;;;;;;5074883;28;20458;-85
2024/03/11 09:23:12;;;;;;;29.42;20.98;;;;;;;;;;5058300;28;20509;-84
2024/03/11 09:25:46;;;;;;;28.77;19.85;;;;;;;;;;5073238;28;20028;-84
2024/03/11 09:28:17;;;;;;;30.42;20.25;;;;;;;;;;5074568;28;20021;-84
2024/03/11 09:30:43;;;;;;;30.20;20.23;;;;;;;;;;5073583;28;20081;-84
2024/03/11 09:33:27;;;;;;;;;;;;;;;;;;;;;
2024/03/11 09:36:32;;;;;;;28.88;20.08;;;;;;;;;;5074708;28;20386;-84
2024/03/11 09:42:09;;;;;;;26.63;18.35;;;;;;;;;;5073471;28;19920;-84
2024/03/11 09:44:35;;;;;;;28.95;19.90;;;;;;;;;;5082327;28;20562;-84
2024/03/11 09:47:01;;;;;;;29.35;20.52;;;;;;;;;;5084392;28;20034;-84
2024/03/11 09:49:27;;;;;;;30.15;20.67;;;;;;;;;;5076532;28;20035;-84
2024/03/11 09:51:56;;;;;;;29.52;20.17;;;;;;;;;;5070485;28;20028;-85
2024/03/11 09:54:22;;;;;;;31.40;20.63;;;;;;;;;;5068432;28;20107;-84
2024/03/11 09:56:50;;;;;;;29.38;20.73;;;;;;;;;;5072358;28;20020;-84
2024/03/11 09:59:24;;;;;;;29.85;21.35;;;;;;;;;;5088513;28;20016;-85
2024/03/11 10:01:54;;;;;;;32.80;22.33;;;;;;;;;;5068916;28;20454;-84
2024/03/11 10:04:23;;;;;;;31.55;21.05;;;;;;;;;;5072067;28;20033;-84
2024/03/11 10:06:59;;;;;;;31.75;22.02;;;;;;;;;;5070704;28;20029;-85
2024/03/11 10:09:28;;;;;;;30.42;21.33;;;;;;;;;;5068064;28;20032;-84
2024/03/11 10:12:08;;;;;;;33.75;22.73;;;;;;;;;;5072289;28;20021;-81
2024/03/11 10:14:38;;;;;;;30.73;20.92;;;;;;;;;;5070687;28;20020;-81
2024/03/11 10:17:24;;;;;;;30.88;21.63;;;;;;;;;;5068693;28;20116;-81
2024/03/11 10:19:54;;;;;;;30.60;20.88;;;;;;;;;;5065384;28;20464;-81
2024/03/11 10:22:33;;;;;;;29.73;21.77;;;;;;;;;;5073909;28;20078;-82
2024/03/11 10:25:02;;;;;;;31.02;20.95;;;;;;;;;;5070583;28;20127;-84
2024/03/11 10:30:20;;;;;;;30.42;21.80;;;;;;;;;;5057287;28;20070;-82
2024/03/11 10:32:52;;;;;;;31.85;21.42;;;;;;;;;;5075780;28;20025;-81
2024/03/11 10:35:21;;;;;;;29.48;20.75;;;;;;;;;;5076232;28;20506;-83
2024/03/11 10:37:50;;;;;;;28.80;20.35;;;;;;;;;;5074118;28;20440;-81
2024/03/11 10:40:19;;;;;;;29.88;21.30;;;;;;;;;;5085402;28;20024;-81
2024/03/11 10:42:54;;;;;;;28.38;20.23;;;;;;;;;;5078134;28;20031;-82
2024/03/11 10:45:37;;;;;;;26.65;18.60;;;;;;;;;;5091342;28;20028;-81
2024/03/11 10:48:03;;;;;;;25.48;18.67;;;;;;;;;;5076148;28;20411;-82
2024/03/11 10:50:30;;;;;;;26.90;19.48;;;;;;;;;;5074774;28;20033;-81
2024/03/11 10:52:59;;;;;;;28.65;19.40;;;;;;;;;;5080985;28;20073;-81
2024/03/11 10:55:38;;;;;;;24.08;17.27;;;;;;;;;;5080599;28;20020;-81
2024/03/11 10:58:09;;;;;;;26.52;17.58;;;;;;;;;;5076169;28;20032;-80
2024/03/11 11:00:35;;;;;;;24.67;16.98;;;;;;;;;;5084627;28;20058;-81
2024/03/11 11:03:13;;;;;;;24.92;17.02;;;;;;;;;;5076481;28;20457;-80
2024/03/11 11:05:52;;;;;;;23.10;16.90;;;;;;;;;;5082668;28;20034;-81
2024/03/11 11:08:22;;;;;;;25.48;18.17;;;;;;;;;;5071461;28;20537;-83
2024/03/11 11:10:53;;;;;;;22.92;16.70;;;;;;;;;;5069770;28;20024;-82
2024/03/11 11:13:34;;;;;;;24.45;17.77;;;;;;;;;;5073776;28;20507;-83
2024/03/11 11:16:03;;;;;;;26.80;18.13;;;;;;;;;;5077523;28;20032;-83
2024/03/11 11:18:34;;;;;;;28.10;18.35;;;;;;;;;;5078030;28;20029;-83
2024/03/11 11:21:00;;;;;;;27.52;18.90;;;;;;;;;;5073687;28;20032;-83
2024/03/11 11:23:31;;;;;;;29.92;19.38;;;;;;;;;;5074672;28;20123;-83
2024/03/11 11:25:57;;;;;;;27.20;18.33;;;;;;;;;;5078031;28;20512;-83
2024/03/11 11:28:36;;;;;;;29.25;18.75;;;;;;;;;;5077233;28;20028;-82
2024/03/11 11:31:27;;;;;;;27.10;19.38;;;;;;;;;;5080892;28;20078;-83
2024/03/11 11:34:04;;;;;;;27.88;18.83;;;;;;;;;;5077060;28;20538;-83
2024/03/11 11:36:33;;;;;;;27.02;18.23;;;;;;;;;;5074005;28;20089;-83
2024/03/11 11:39:13;;;;;;;26.05;18.75;;;;;;;;;;5082054;28;20365;-80
2024/03/11 11:41:45;;;;;;;26.67;18.40;;;;;;;;;;5071230;28;20449;-81
2024/03/11 11:44:26;;;;;;;29.90;20.00;;;;;;;;;;5077692;28;20031;-81
2024/03/11 11:46:54;;;;;;;28.05;19.27;;;;;;;;;;5052762;28;20036;-83
2024/03/11 11:49:34;;;;;;;31.27;20.15;;;;;;;;;;5064723;28;20098;-82
2024/03/11 11:52:04;;;;;;;32.45;21.35;;;;;;;;;;5058237;28;20039;-83
2024/03/11 11:54:38;;;;;;;34.38;21.52;;;;;;;;;;5069539;28;20422;-81
2024/03/11 11:57:14;;;;;;;34.08;21.58;;;;;;;;;;5066552;28;20032;-81
2024/03/11 12:00:03;;;;;;;31.13;20.75;;;;;;;;;;5077168;28;20043;-84
2024/03/11 12:02:37;;;;;;;31.58;21.17;;;;;;;;;;5070675;28;20051;-82
2024/03/11 12:05:05;;;;;;;33.95;21.05;;;;;;;;;;5071146;28;20036;-81
2024/03/11 12:07:43;;;;;;;33.25;21.77;;;;;;;;;;5073147;28;20495;-82
2024/03/11 12:10:10;;;;;;;34.28;22.05;;;;;;;;;;5063056;28;20082;-81
2024/03/11 12:12:43;;;;;;;34.35;22.25;;;;;;;;;;5069132;28;20533;-81
2024/03/11 12:15:29;;;;;;;41.28;24.73;;;;;;;;;;5063171;28;20384;-81
2024/03/11 12:17:57;;;;;;;36.67;22.77;;;;;;;;;;5068951;28;20420;-82
2024/03/11 12:22:57;;;;;;;38.90;23.42;;;;;;;;;;5066478;28;20028;-82
2024/03/11 12:25:36;;;;;;;34.00;21.83;;;;;;;;;;5072499;28;20033;-83
2024/03/11 12:28:04;;;;;;;38.00;22.10;;;;;;;;;;5065421;28;20024;-82
2024/03/11 12:30:37;;;;;;;37.38;22.67;;;;;;;;;;5069008;28;20025;-84
2024/03/11 12:33:09;;;;;;;39.40;24.13;;;;;;;;;;5067521;28;20530;-82
2024/03/11 12:35:37;;;;;;;36.85;23.05;;;;;;;;;;5078367;28;20027;-82
2024/03/11 12:38:07;;;;;;;36.17;22.38;;;;;;;;;;5065145;28;20032;-82
2024/03/11 12:40:42;;;;;;;35.25;21.40;;;;;;;;;;5082390;28;20035;-83
2024/03/11 12:43:30;;;;;;;39.03;22.00;;;;;;;;;;5092714;28;20028;-84
2024/03/11 12:46:10;;;;;;;36.72;22.58;;;;;;;;;;5070477;28;20035;-84
2024/03/11 12:48:36;;;;;;;37.83;22.17;;;;;;;;;;5056200;28;20111;-84
2024/03/11 12:51:05;;;;;;;36.22;22.10;;;;;;;;;;5073239;28;20123;-84
2024/03/11 12:53:33;;;;;;;36.45;21.60;;;;;;;;;;5082452;28;20391;-84
2024/03/11 12:56:12;;;;;;;39.80;22.50;;;;;;;;;;5068772;28;20017;-84
2024/03/11 12:58:39;;;;;;;38.15;22.75;;;;;;;;;;5066598;28;20495;-83
2024/03/11 13:01:12;;;;;;;38.80;22.90;;;;;;;;;;5066904;28;20035;-82
2024/03/11 13:03:43;;;;;;;37.35;22.27;;;;;;;;;;5069965;28;20421;-82
2024/03/11 13:06:16;;;;;;;36.42;21.88;;;;;;;;;;5078129;28;20055;-81
2024/03/11 13:08:42;;;;;;;35.92;21.30;;;;;;;;;;5064673;28;20533;-82
2024/03/11 13:11:10;;;;;;;36.35;21.67;;;;;;;;;;5071736;28;20036;-84
2024/03/11 13:13:41;;;;;;;35.67;21.30;;;;;;;;;;5074339;28;20483;-85
2024/03/11 13:16:09;;;;;;;37.97;22.25;;;;;;;;;;5070380;28;20029;-85
2024/03/11 13:18:41;;;;;;;36.20;22.58;;;;;;;;;;5073158;28;20478;-84
2024/03/11 13:21:07;;;;;;;37.28;23.42;;;;;;;;;;5065232;28;20032;-85
2024/03/11 13:23:34;;;;;;;37.55;22.17;;;;;;;;;;5066815;28;20036;-85
2024/03/11 13:26:03;;;;;;;38.38;23.23;;;;;;;;;;5072951;28;20035;-84
2024/03/11 13:28:28;;;;;;;39.50;22.55;;;;;;;;;;5088991;28;20040;-85
2024/03/11 13:31:08;;;;;;;38.58;23.13;;;;;;;;;;5069385;28;20043;-85
2024/03/11 13:33:42;;;;;;;36.95;22.17;;;;;;;;;;5056352;28;20033;-85
2024/03/11 13:36:10;;;;;;;38.15;22.25;;;;;;;;;;5071691;28;20016;-84
2024/03/11 13:38:36;;;;;;;38.35;22.65;;;;;;;;;;5076166;28;20036;-85
2024/03/11 13:41:06;;;;;;;38.50;23.10;;;;;;;;;;5070037;28;20028;-85
2024/03/11 13:43:39;;;;;;;39.65;22.13;;;;;;;;;;5063816;28;20407;-85
2024/03/11 13:46:05;;;;;;;37.95;23.20;;;;;;;;;;5069962;28;20024;-85
2024/03/11 13:48:31;;;;;;;35.05;21.38;;;;;;;;;;5067884;28;20052;-85
2024/03/11 13:50:59;;;;;;;38.42;21.95;;;;;;;;;;5080767;28;20032;-85
2024/03/11 13:53:26;;;;;;;37.13;21.85;;;;;;;;;;5073569;28;20127;-85
2024/03/11 13:55:54;;;;;;;38.53;22.75;;;;;;;;;;5074325;28;20036;-85
2024/03/11 13:58:24;;;;;;;36.83;21.77;;;;;;;;;;5074450;28;20117;-85
2024/03/11 14:00:52;;;;;;;37.58;22.77;;;;;;;;;;5074962;28;20057;-84
2024/03/11 14:03:20;;;;;;;38.53;22.35;;;;;;;;;;5061970;28;20143;-84
2024/03/11 14:05:49;;;;;;;35.53;21.95;;;;;;;;;;5073367;28;20392;-85
2024/03/11 14:08:22;;;;;;;37.63;22.85;;;;;;;;;;5075576;28;20119;-85
2024/03/11 14:10:48;;;;;;;38.22;22.02;;;;;;;;;;5072945;28;20069;-85
2024/03/11 14:13:17;;;;;;;36.90;20.88;;;;;;;;;;5051244;28;20028;-84
2024/03/11 14:15:51;;;;;;;38.55;23.13;;;;;;;;;;5070468;28;20024;-85
2024/03/11 14:18:24;;;;;;;37.67;22.85;;;;;;;;;;5064567;28;20032;-85
2024/03/11 14:21:28;;;;;;;38.45;21.73;;;;;;;;;;5062946;28;20052;-84
2024/03/11 14:23:59;;;;;;;38.22;21.60;;;;;;;;;;5061092;28;20029;-82
2024/03/11 14:26:50;;;;;;;33.45;20.73;;;;;;;;;;5082172;28;20036;-83
2024/03/11 14:29:20;;;;;;;34.70;21.13;;;;;;;;;;5060410;28;20036;-84
2024/03/11 14:31:46;;;;;;;36.20;21.33;;;;;;;;;;5065990;28;20082;-85
2024/03/11 14:34:12;;;;;;;33.50;20.80;;;;;;;;;;5074756;28;20421;-82
2024/03/11 14:36:38;;;;;;;40.28;21.65;;;;;;;;;;5066958;28;20039;-83
2024/03/11 14:39:16;;;;;;;36.80;21.17;;;;;;;;;;5061955;28;20032;-83